sensor_id;sensor_type;location;lat;lon;timestamp;pressure;altitude;pressure_sealevel;temperature;humidity
39141;BME280;24875;48.436;10.298;2023-03-01T00:01:26;96901.50;;;0.83;95.12
39141;BME280;24875;48.436;10.298;2023-03-01T00:03:54;96901.41;;;0.84;94.47
39141;BME280;24875;48.436;10.298;2023-03-01T00:06:21;96892.34;;;0.77;94.34
39141;BME280;24875;48.436;10.298;2023-03-01T00:08:49;96886.47;;;0.75;94.94
39141;BME280;24875;48.436;10.298;2023-03-01T00:11:17;96889.03;;;0.88;93.80
39141;BME280;24875;48.436;10.298;2023-03-01T00:13:44;96890.28;;;0.70;94.40
39141;BME280;24875;48.436;10.298;2023-03-01T00:16:14;96890.94;;;0.86;93.42
39141;BME280;24875;48.436;10.298;2023-03-01T00:18:42;96891.97;;;0.83;93.49
39141;BME280;24875;48.436;10.298;2023-03-01T00:21:08;96888.72;;;0.80;93.74
39141;BME280;24875;48.436;10.298;2023-03-01T00:23:35;96894.75;;;0.93;94.05
39141;BME280;24875;48.436;10.298;2023-03-01T00:26:02;96885.94;;;0.95;93.75
39141;BME280;24875;48.436;10.298;2023-03-01T00:28:28;96883.84;;;0.88;94.18
39141;BME280;24875;48.436;10.298;2023-03-01T00:30:55;96880.84;;;0.94;92.78
39141;BME280;24875;48.436;10.298;2023-03-01T00:33:21;96878.25;;;0.94;94.05
39141;BME280;24875;48.436;10.298;2023-03-01T00:35:49;96875.78;;;1.05;93.35
39141;BME280;24875;48.436;10.298;2023-03-01T00:38:15;96878.47;;;0.91;93.24
39141;BME280;24875;48.436;10.298;2023-03-01T00:40:42;96873.28;;;0.91;93.38
39141;BME280;24875;48.436;10.298;2023-03-01T00:43:08;96866.13;;;0.82;94.13
39141;BME280;24875;48.436;10.298;2023-03-01T00:45:35;96871.63;;;0.90;94.50
39141;BME280;24875;48.436;10.298;2023-03-01T00:48:01;96865.38;;;0.80;94.15
39141;BME280;24875;48.436;10.298;2023-03-01T00:50:28;96864.88;;;0.87;94.28
39141;BME280;24875;48.436;10.298;2023-03-01T00:52:56;96865.50;;;0.91;94.54
39141;BME280;24875;48.436;10.298;2023-03-01T00:55:23;96867.78;;;0.83;95.00
39141;BME280;24875;48.436;10.298;2023-03-01T00:57:50;96860.72;;;0.85;95.26
39141;BME280;24875;48.436;10.298;2023-03-01T01:00:17;96858.66;;;0.90;93.98
39141;BME280;24875;48.436;10.298;2023-03-01T01:02:44;96852.03;;;0.98;93.98
39141;BME280;24875;48.436;10.298;2023-03-01T01:05:11;96848.16;;;0.91;93.95
39141;BME280;24875;48.436;10.298;2023-03-01T01:07:38;96837.28;;;0.99;94.16
39141;BME280;24875;48.436;10.298;2023-03-01T01:10:06;96838.41;;;1.07;92.85
39141;BME280;24875;48.436;10.298;2023-03-01T01:12:33;96837.59;;;0.94;93.23
39141;BME280;24875;48.436;10.298;2023-03-01T01:15:00;96833.44;;;0.92;93.39
39141;BME280;24875;48.436;10.298;2023-03-01T01:17:26;96836.63;;;0.95;93.14
39141;BME280;24875;48.436;10.298;2023-03-01T01:19:52;96838.41;;;0.95;93.68
39141;BME280;24875;48.436;10.298;2023-03-01T01:22:19;96830.94;;;0.90;93.80
39141;BME280;24875;48.436;10.298;2023-03-01T01:24:45;96830.31;;;0.99;93.87
39141;BME280;24875;48.436;10.298;2023-03-01T01:27:13;96821.06;;;0.95;93.68
39141;BME280;24875;48.436;10.298;2023-03-01T01:29:39;96820.47;;;0.92;94.34
39141;BME280;24875;48.436;10.298;2023-03-01T01:32:07;96818.88;;;1.02;93.67
39141;BME280;24875;48.436;10.298;2023-03-01T01:34:33;96816.75;;;0.96;93.03
39141;BME280;24875;48.436;10.298;2023-03-01T01:37:00;96810.00;;;0.93;93.24
39141;BME280;24875;48.436;10.298;2023-03-01T01:39:28;96808.53;;;0.89;93.27
39141;BME280;24875;48.436;10.298;2023-03-01T01:41:54;96813.41;;;0.94;93.21
39141;BME280;24875;48.436;10.298;2023-03-01T01:44:25;96796.41;;;0.90;93.49
39141;BME280;24875;48.436;10.298;2023-03-01T01:46:54;96807.69;;;0.89;93.45
39141;BME280;24875;48.436;10.298;2023-03-01T01:49:32;96803.75;;;0.96;93.37
39141;BME280;24875;48.436;10.298;2023-03-01T01:52:06;96802.84;;;0.84;93.93
39141;BME280;24875;48.436;10.298;2023-03-01T01:54:40;96798.75;;;0.93;93.02
39141;BME280;24875;48.436;10.298;2023-03-01T01:57:12;96802.09;;;0.95;93.23
39141;BME280;24875;48.436;10.298;2023-03-01T01:59:43;96801.69;;;1.01;92.71
39141;BME280;24875;48.436;10.298;2023-03-01T02:02:12;96798.34;;;0.86;92.87
39141;BME280;24875;48.436;10.298;2023-03-01T02:04:40;96799.63;;;0.93;92.37
39141;BME280;24875;48.436;10.298;2023-03-01T02:07:13;96793.78;;;1.02;92.71
39141;BME280;24875;48.436;10.298;2023-03-01T02:09:42;96792.13;;;0.89;92.57
39141;BME280;24875;48.436;10.298;2023-03-01T02:12:10;96799.84;;;0.78;92.96
39141;BME280;24875;48.436;10.298;2023-03-01T02:14:37;96799.22;;;0.87;93.10
39141;BME280;24875;48.436;10.298;2023-03-01T02:17:05;96793.97;;;0.99;92.85
39141;BME280;24875;48.436;10.298;2023-03-01T02:19:40;96794.38;;;1.06;93.12
39141;BME280;24875;48.436;10.298;2023-03-01T02:22:17;96794.19;;;0.96;92.82
39141;BME280;24875;48.436;10.298;2023-03-01T02:24:52;96791.47;;;1.10;93.53
39141;BME280;24875;48.436;10.298;2023-03-01T02:27:30;96792.00;;;1.03;94.22
39141;BME280;24875;48.436;10.298;2023-03-01T02:30:01;96792.94;;;1.02;92.97
39141;BME280;24875;48.436;10.298;2023-03-01T02:32:27;96781.00;;;0.99;92.92
39141;BME280;24875;48.436;10.298;2023-03-01T02:34:54;96778.22;;;0.90;93.04
39141;BME280;24875;48.436;10.298;2023-03-01T02:37:31;96764.13;;;0.94;93.35
39141;BME280;24875;48.436;10.298;2023-03-01T02:39:59;96770.75;;;0.98;93.75
39141;BME280;24875;48.436;10.298;2023-03-01T02:42:36;96769.63;;;0.89;93.71
39141;BME280;24875;48.436;10.298;2023-03-01T02:45:07;96770.75;;;0.98;92.87
39141;BME280;24875;48.436;10.298;2023-03-01T02:47:35;96762.44;;;0.93;93.16
39141;BME280;24875;48.436;10.298;2023-03-01T02:50:01;96766.28;;;1.00;93.60
39141;BME280;24875;48.436;10.298;2023-03-01T02:52:34;96761.81;;;1.02;92.79
39141;BME280;24875;48.436;10.298;2023-03-01T02:55:06;96765.78;;;0.95;93.30
39141;BME280;24875;48.436;10.298;2023-03-01T02:57:35;96766.56;;;1.08;92.75
39141;BME280;24875;48.436;10.298;2023-03-01T03:00:06;96761.28;;;0.97;93.72
39141;BME280;24875;48.436;10.298;2023-03-01T03:02:37;96761.09;;;1.00;93.33
39141;BME280;24875;48.436;10.298;2023-03-01T03:05:07;96752.28;;;0.90;93.60
39141;BME280;24875;48.436;10.298;2023-03-01T03:07:35;96756.72;;;1.00;92.26
39141;BME280;24875;48.436;10.298;2023-03-01T03:10:04;96755.06;;;0.99;92.50
39141;BME280;24875;48.436;10.298;2023-03-01T03:12:39;96753.59;;;1.08;91.67
39141;BME280;24875;48.436;10.298;2023-03-01T03:15:08;96748.75;;;1.03;91.62
39141;BME280;24875;48.436;10.298;2023-03-01T03:17:41;96745.41;;;1.01;90.98
39141;BME280;24875;48.436;10.298;2023-03-01T03:20:11;96740.88;;;0.92;91.77
39141;BME280;24875;48.436;10.298;2023-03-01T03:22:44;96753.09;;;1.03;92.30
39141;BME280;24875;48.436;10.298;2023-03-01T03:25:11;96745.03;;;0.95;91.15
39141;BME280;24875;48.436;10.298;2023-03-01T03:27:38;96748.78;;;0.91;91.98
39141;BME280;24875;48.436;10.298;2023-03-01T03:30:06;96738.78;;;0.97;91.53
39141;BME280;24875;48.436;10.298;2023-03-01T03:32:34;96734.34;;;0.87;92.99
39141;BME280;24875;48.436;10.298;2023-03-01T03:35:02;96740.63;;;1.08;91.90
39141;BME280;24875;48.436;10.298;2023-03-01T03:37:34;96740.44;;;0.98;91.92
39141;BME280;24875;48.436;10.298;2023-03-01T03:40:18;96731.81;;;0.98;92.13
39141;BME280;24875;48.436;10.298;2023-03-01T03:42:44;96744.19;;;0.94;92.34
39141;BME280;24875;48.436;10.298;2023-03-01T03:45:11;96742.31;;;0.96;93.36
39141;BME280;24875;48.436;10.298;2023-03-01T03:47:37;96739.31;;;1.02;93.59
39141;BME280;24875;48.436;10.298;2023-03-01T03:50:06;96735.44;;;1.08;93.82
39141;BME280;24875;48.436;10.298;2023-03-01T03:52:32;96740.84;;;1.05;93.67
39141;BME280;24875;48.436;10.298;2023-03-01T03:54:59;96742.31;;;0.96;94.89
39141;BME280;24875;48.436;10.298;2023-03-01T03:57:25;96737.28;;;1.06;93.40
39141;BME280;24875;48.436;10.298;2023-03-01T03:59:52;96739.06;;;1.05;94.22
39141;BME280;24875;48.436;10.298;2023-03-01T04:02:18;96734.69;;;1.06;94.37
39141;BME280;24875;48.436;10.298;2023-03-01T04:04:47;96732.53;;;1.12;93.91
39141;BME280;24875;48.436;10.298;2023-03-01T04:07:16;96722.38;;;0.97;93.71
39141;BME280;24875;48.436;10.298;2023-03-01T04:09:43;96737.88;;;0.98;93.36
39141;BME280;24875;48.436;10.298;2023-03-01T04:12:09;96725.47;;;1.02;93.50
39141;BME280;24875;48.436;10.298;2023-03-01T04:14:36;96725.72;;;0.99;92.99
39141;BME280;24875;48.436;10.298;2023-03-01T04:17:03;96720.28;;;1.02;92.93
39141;BME280;24875;48.436;10.298;2023-03-01T04:19:30;96724.78;;;1.00;93.44
39141;BME280;24875;48.436;10.298;2023-03-01T04:22:01;96720.53;;;0.99;93.63
39141;BME280;24875;48.436;10.298;2023-03-01T04:24:34;96719.59;;;1.00;93.76
39141;BME280;24875;48.436;10.298;2023-03-01T04:27:00;96719.25;;;1.04;93.58
39141;BME280;24875;48.436;10.298;2023-03-01T04:29:27;96718.03;;;0.97;93.70
39141;BME280;24875;48.436;10.298;2023-03-01T04:31:53;96714.94;;;0.92;93.85
39141;BME280;24875;48.436;10.298;2023-03-01T04:34:20;96708.53;;;0.85;95.32
39141;BME280;24875;48.436;10.298;2023-03-01T04:36:46;96708.06;;;0.91;94.63
39141;BME280;24875;48.436;10.298;2023-03-01T04:39:13;96699.09;;;1.08;93.05
39141;BME280;24875;48.436;10.298;2023-03-01T04:41:41;96702.59;;;1.19;92.03
39141;BME280;24875;48.436;10.298;2023-03-01T04:44:08;96702.22;;;1.13;92.34
39141;BME280;24875;48.436;10.298;2023-03-01T04:46:35;96701.63;;;0.97;93.81
39141;BME280;24875;48.436;10.298;2023-03-01T04:49:02;96698.09;;;0.98;92.94
39141;BME280;24875;48.436;10.298;2023-03-01T04:51:30;96705.47;;;0.91;93.22
39141;BME280;24875;48.436;10.298;2023-03-01T04:53:58;96701.69;;;0.84;92.95
39141;BME280;24875;48.436;10.298;2023-03-01T04:56:25;96701.56;;;0.86;93.00
39141;BME280;24875;48.436;10.298;2023-03-01T04:58:54;96710.38;;;0.96;92.73
39141;BME280;24875;48.436;10.298;2023-03-01T05:01:21;96708.59;;;0.84;92.84
39141;BME280;24875;48.436;10.298;2023-03-01T05:03:49;96706.00;;;0.84;92.60
39141;BME280;24875;48.436;10.298;2023-03-01T05:06:17;96701.06;;;0.81;93.04
39141;BME280;24875;48.436;10.298;2023-03-01T05:08:44;96690.63;;;0.58;92.90
39141;BME280;24875;48.436;10.298;2023-03-01T05:11:13;96699.97;;;0.60;92.90
39141;BME280;24875;48.436;10.298;2023-03-01T05:13:39;96694.16;;;0.69;93.19
39141;BME280;24875;48.436;10.298;2023-03-01T05:16:08;96695.06;;;0.68;92.82
39141;BME280;24875;48.436;10.298;2023-03-01T05:18:36;96687.59;;;0.63;92.57
39141;BME280;24875;48.436;10.298;2023-03-01T05:21:05;96699.22;;;0.58;93.47
39141;BME280;24875;48.436;10.298;2023-03-01T05:23:32;96698.00;;;0.51;92.97
39141;BME280;24875;48.436;10.298;2023-03-01T05:25:59;96696.75;;;0.44;92.72
39141;BME280;24875;48.436;10.298;2023-03-01T05:28:26;96699.69;;;0.27;93.37
39141;BME280;24875;48.436;10.298;2023-03-01T05:30:55;96690.53;;;0.34;93.63
39141;BME280;24875;48.436;10.298;2023-03-01T05:33:24;96701.75;;;0.35;93.55
39141;BME280;24875;48.436;10.298;2023-03-01T05:35:51;96693.03;;;0.23;93.63
39141;BME280;24875;48.436;10.298;2023-03-01T05:38:19;96690.47;;;0.23;93.34
39141;BME280;24875;48.436;10.298;2023-03-01T05:40:47;96693.16;;;0.09;93.54
39141;BME280;24875;48.436;10.298;2023-03-01T05:43:16;96699.66;;;0.15;94.77
39141;BME280;24875;48.436;10.298;2023-03-01T05:45:43;96701.75;;;-0.02;95.05
39141;BME280;24875;48.436;10.298;2023-03-01T05:48:11;96695.94;;;0.06;94.53
39141;BME280;24875;48.436;10.298;2023-03-01T05:50:41;96695.94;;;0.06;94.26
39141;BME280;24875;48.436;10.298;2023-03-01T05:53:10;96692.41;;;0.07;94.13
39141;BME280;24875;48.436;10.298;2023-03-01T05:55:37;96698.53;;;0.06;93.83
39141;BME280;24875;48.436;10.298;2023-03-01T05:58:06;96702.25;;;0.02;94.43
39141;BME280;24875;48.436;10.298;2023-03-01T06:00:34;96700.09;;;-0.03;94.60
39141;BME280;24875;48.436;10.298;2023-03-01T06:03:01;96702.78;;;-0.05;95.13
39141;BME280;24875;48.436;10.298;2023-03-01T06:05:28;96702.25;;;0.02;95.23
39141;BME280;24875;48.436;10.298;2023-03-01T06:07:58;96699.03;;;0.11;94.69
39141;BME280;24875;48.436;10.298;2023-03-01T06:10:25;96711.59;;;-0.07;94.40
39141;BME280;24875;48.436;10.298;2023-03-01T06:12:52;96710.00;;;0.02;94.00
39141;BME280;24875;48.436;10.298;2023-03-01T06:15:18;96715.53;;;-0.02;94.34
39141;BME280;24875;48.436;10.298;2023-03-01T06:17:45;96710.47;;;0.09;93.74
39141;BME280;24875;48.436;10.298;2023-03-01T06:20:15;96708.56;;;-0.14;95.57
39141;BME280;24875;48.436;10.298;2023-03-01T06:22:42;96711.75;;;-0.10;95.90
39141;BME280;24875;48.436;10.298;2023-03-01T06:25:10;96711.09;;;0.00;94.41
39141;BME280;24875;48.436;10.298;2023-03-01T06:27:38;96717.97;;;-0.13;94.69
39141;BME280;24875;48.436;10.298;2023-03-01T06:30:06;96703.91;;;-0.09;94.94
39141;BME280;24875;48.436;10.298;2023-03-01T06:32:35;96713.22;;;-0.06;95.38
39141;BME280;24875;48.436;10.298;2023-03-01T06:35:01;96711.44;;;-0.18;94.67
39141;BME280;24875;48.436;10.298;2023-03-01T06:37:28;96714.78;;;-0.16;95.31
39141;BME280;24875;48.436;10.298;2023-03-01T06:39:54;96721.81;;;-0.18;96.24
39141;BME280;24875;48.436;10.298;2023-03-01T06:42:22;96710.84;;;-0.09;95.96
39141;BME280;24875;48.436;10.298;2023-03-01T06:44:49;96718.69;;;-0.23;96.15
39141;BME280;24875;48.436;10.298;2023-03-01T06:47:15;96731.84;;;-0.26;96.73
39141;BME280;24875;48.436;10.298;2023-03-01T06:49:42;96725.00;;;-0.27;96.50
39141;BME280;24875;48.436;10.298;2023-03-01T06:52:08;96718.09;;;-0.14;96.90
39141;BME280;24875;48.436;10.298;2023-03-01T06:54:34;96708.47;;;-0.12;95.99
39141;BME280;24875;48.436;10.298;2023-03-01T06:57:01;96721.09;;;-0.08;95.72
39141;BME280;24875;48.436;10.298;2023-03-01T06:59:29;96714.28;;;0.03;96.13
39141;BME280;24875;48.436;10.298;2023-03-01T07:01:56;96716.25;;;0.00;95.49
39141;BME280;24875;48.436;10.298;2023-03-01T07:04:23;96719.16;;;0.08;95.97
39141;BME280;24875;48.436;10.298;2023-03-01T07:06:49;96703.72;;;0.06;95.69
39141;BME280;24875;48.436;10.298;2023-03-01T07:09:20;96699.16;;;0.10;95.43
39141;BME280;24875;48.436;10.298;2023-03-01T07:11:47;96704.66;;;0.05;96.04
39141;BME280;24875;48.436;10.298;2023-03-01T07:14:13;96704.97;;;0.13;95.08
39141;BME280;24875;48.436;10.298;2023-03-01T07:16:41;96701.56;;;0.13;95.44
39141;BME280;24875;48.436;10.298;2023-03-01T07:19:08;96695.13;;;0.18;94.99
39141;BME280;24875;48.436;10.298;2023-03-01T07:21:34;96695.84;;;0.08;95.25
39141;BME280;24875;48.436;10.298;2023-03-01T07:24:02;96696.97;;;-0.08;94.93
39141;BME280;24875;48.436;10.298;2023-03-01T07:26:29;96694.59;;;0.01;95.65
39141;BME280;24875;48.436;10.298;2023-03-01T07:28:58;96689.41;;;0.13;94.46
39141;BME280;24875;48.436;10.298;2023-03-01T07:31:25;96690.34;;;0.00;96.13
39141;BME280;24875;48.436;10.298;2023-03-01T07:33:54;96688.78;;;0.22;95.15
39141;BME280;24875;48.436;10.298;2023-03-01T07:36:21;96690.88;;;0.17;95.19
39141;BME280;24875;48.436;10.298;2023-03-01T07:38:48;96687.94;;;0.34;94.26
39141;BME280;24875;48.436;10.298;2023-03-01T07:41:15;96688.69;;;0.36;95.51
39141;BME280;24875;48.436;10.298;2023-03-01T07:43:41;96684.84;;;0.42;94.25
39141;BME280;24875;48.436;10.298;2023-03-01T07:46:08;96680.53;;;1.14;98.70
39141;BME280;24875;48.436;10.298;2023-03-01T07:48:34;96686.25;;;1.06;92.77
39141;BME280;24875;48.436;10.298;2023-03-01T07:51:04;96678.13;;;1.11;92.08
39141;BME280;24875;48.436;10.298;2023-03-01T07:53:32;96676.31;;;0.88;92.17
39141;BME280;24875;48.436;10.298;2023-03-01T07:56:03;96678.03;;;1.12;92.01
39141;BME280;24875;48.436;10.298;2023-03-01T07:58:30;96679.50;;;1.04;91.50
39141;BME280;24875;48.436;10.298;2023-03-01T08:01:16;96680.78;;;1.21;91.40
39141;BME280;24875;48.436;10.298;2023-03-01T08:03:52;96669.69;;;1.19;91.97
39141;BME280;24875;48.436;10.298;2023-03-01T08:06:20;96665.09;;;1.23;90.42
39141;BME280;24875;48.436;10.298;2023-03-01T08:08:46;96672.34;;;1.30;89.60
39141;BME280;24875;48.436;10.298;2023-03-01T08:11:14;96670.41;;;1.21;90.93
39141;BME280;24875;48.436;10.298;2023-03-01T08:13:41;96658.94;;;1.36;90.40
39141;BME280;24875;48.436;10.298;2023-03-01T08:16:10;96667.88;;;1.32;90.93
39141;BME280;24875;48.436;10.298;2023-03-01T08:18:37;96671.25;;;1.56;89.14
39141;BME280;24875;48.436;10.298;2023-03-01T08:21:04;96661.34;;;1.50;88.85
39141;BME280;24875;48.436;10.298;2023-03-01T08:23:32;96663.47;;;1.56;87.14
39141;BME280;24875;48.436;10.298;2023-03-01T08:26:06;96662.59;;;1.68;87.34
39141;BME280;24875;48.436;10.298;2023-03-01T08:28:33;96660.66;;;1.59;85.76
39141;BME280;24875;48.436;10.298;2023-03-01T08:31:00;96663.34;;;1.58;87.00
39141;BME280;24875;48.436;10.298;2023-03-01T08:33:26;96662.88;;;1.53;87.82
39141;BME280;24875;48.436;10.298;2023-03-01T08:36:02;96655.06;;;1.87;86.77
39141;BME280;24875;48.436;10.298;2023-03-01T08:38:28;96658.63;;;1.86;86.23
39141;BME280;24875;48.436;10.298;2023-03-01T08:40:59;96659.94;;;2.02;86.25
39141;BME280;24875;48.436;10.298;2023-03-01T08:43:26;96654.97;;;1.88;84.23
39141;BME280;24875;48.436;10.298;2023-03-01T08:45:52;96644.81;;;1.96;83.33
39141;BME280;24875;48.436;10.298;2023-03-01T08:48:19;96658.63;;;1.86;85.55
39141;BME280;24875;48.436;10.298;2023-03-01T08:50:45;96645.31;;;2.12;85.08
39141;BME280;24875;48.436;10.298;2023-03-01T08:53:12;96642.38;;;2.39;84.25
39141;BME280;24875;48.436;10.298;2023-03-01T08:55:38;96646.25;;;2.22;85.00
39141;BME280;24875;48.436;10.298;2023-03-01T08:58:06;96644.25;;;2.37;82.74
39141;BME280;24875;48.436;10.298;2023-03-01T09:00:32;96653.00;;;2.25;82.49
39141;BME280;24875;48.436;10.298;2023-03-01T09:02:59;96644.97;;;2.28;82.09
39141;BME280;24875;48.436;10.298;2023-03-01T09:05:26;96643.78;;;2.32;81.79
39141;BME280;24875;48.436;10.298;2023-03-01T09:07:52;96645.31;;;2.23;82.14
39141;BME280;24875;48.436;10.298;2023-03-01T09:10:19;96650.28;;;2.26;82.02
39141;BME280;24875;48.436;10.298;2023-03-01T09:12:45;96638.84;;;2.18;82.38
39141;BME280;24875;48.436;10.298;2023-03-01T09:15:13;96637.16;;;2.28;83.38
39141;BME280;24875;48.436;10.298;2023-03-01T09:17:40;96634.81;;;2.25;82.40
39141;BME280;24875;48.436;10.298;2023-03-01T09:20:07;96636.13;;;2.19;82.01
39141;BME280;24875;48.436;10.298;2023-03-01T09:22:34;96636.31;;;2.16;82.42
39141;BME280;24875;48.436;10.298;2023-03-01T09:25:00;96639.19;;;2.46;82.74
39141;BME280;24875;48.436;10.298;2023-03-01T09:27:27;96633.16;;;2.67;82.03
39141;BME280;24875;48.436;10.298;2023-03-01T09:29:53;96632.91;;;2.59;82.21
39141;BME280;24875;48.436;10.298;2023-03-01T09:32:22;96624.63;;;2.54;81.17
39141;BME280;24875;48.436;10.298;2023-03-01T09:34:49;96631.50;;;2.55;81.60
39141;BME280;24875;48.436;10.298;2023-03-01T09:37:30;96618.13;;;2.71;81.65
39141;BME280;24875;48.436;10.298;2023-03-01T09:39:57;96625.34;;;2.67;80.50
39141;BME280;24875;48.436;10.298;2023-03-01T09:42:24;96621.78;;;2.79;79.80
39141;BME280;24875;48.436;10.298;2023-03-01T09:44:53;96624.13;;;2.82;80.98
39141;BME280;24875;48.436;10.298;2023-03-01T09:47:26;96616.31;;;2.82;78.84
39141;BME280;24875;48.436;10.298;2023-03-01T09:49:59;96623.91;;;2.74;79.10
39141;BME280;24875;48.436;10.298;2023-03-01T09:52:34;96619.69;;;2.62;80.62
39141;BME280;24875;48.436;10.298;2023-03-01T09:55:09;96622.75;;;2.67;80.72
39141;BME280;24875;48.436;10.298;2023-03-01T09:57:38;96620.59;;;2.83;81.13
39141;BME280;24875;48.436;10.298;2023-03-01T10:00:16;96618.31;;;2.79;79.30
39141;BME280;24875;48.436;10.298;2023-03-01T10:02:51;96620.31;;;2.97;79.11
39141;BME280;24875;48.436;10.298;2023-03-01T10:05:31;96617.19;;;3.14;78.83
39141;BME280;24875;48.436;10.298;2023-03-01T10:08:11;96607.94;;;3.21;78.39
39141;BME280;24875;48.436;10.298;2023-03-01T10:10:43;96601.09;;;3.20;77.27
39141;BME280;24875;48.436;10.298;2023-03-01T10:13:16;96596.16;;;3.06;79.04
39141;BME280;24875;48.436;10.298;2023-03-01T10:15:47;96604.88;;;3.16;78.19
39141;BME280;24875;48.436;10.298;2023-03-01T10:18:18;96601.66;;;2.81;78.56
39141;BME280;24875;48.436;10.298;2023-03-01T10:20:51;96589.47;;;2.82;79.23
39141;BME280;24875;48.436;10.298;2023-03-01T10:23:19;96590.00;;;2.65;79.29
39141;BME280;24875;48.436;10.298;2023-03-01T10:25:59;96582.72;;;3.21;79.02
39141;BME280;24875;48.436;10.298;2023-03-01T10:28:33;96579.13;;;3.54;78.60
39141;BME280;24875;48.436;10.298;2023-03-01T10:31:01;96575.75;;;3.83;76.53
39141;BME280;24875;48.436;10.298;2023-03-01T10:33:32;96579.22;;;3.83;76.34
39141;BME280;24875;48.436;10.298;2023-03-01T10:36:01;96574.63;;;3.96;76.71
39141;BME280;24875;48.436;10.298;2023-03-01T10:38:30;96571.41;;;4.13;74.40
39141;BME280;24875;48.436;10.298;2023-03-01T10:40:59;96576.28;;;4.27;71.96
39141;BME280;24875;48.436;10.298;2023-03-01T10:43:32;96566.44;;;4.40;73.04
39141;BME280;24875;48.436;10.298;2023-03-01T10:46:22;96561.94;;;4.42;72.08
39141;BME280;24875;48.436;10.298;2023-03-01T10:49:05;96563.69;;;4.32;74.62
39141;BME280;24875;48.436;10.298;2023-03-01T10:51:32;96555.78;;;4.52;77.61
39141;BME280;24875;48.436;10.298;2023-03-01T10:53:59;96553.25;;;4.32;74.70
39141;BME280;24875;48.436;10.298;2023-03-01T10:56:25;96545.63;;;4.20;74.32
39141;BME280;24875;48.436;10.298;2023-03-01T10:59:00;96542.81;;;4.90;75.38
39141;BME280;24875;48.436;10.298;2023-03-01T11:01:28;96539.94;;;4.93;73.15
39141;BME280;24875;48.436;10.298;2023-03-01T11:04:10;96540.75;;;4.93;70.64
39141;BME280;24875;48.436;10.298;2023-03-01T11:06:39;96541.28;;;4.78;74.11
39141;BME280;24875;48.436;10.298;2023-03-01T11:09:14;96518.38;;;5.00;71.55
39141;BME280;24875;48.436;10.298;2023-03-01T11:11:41;96526.88;;;5.02;73.33
39141;BME280;24875;48.436;10.298;2023-03-01T11:14:16;96513.97;;;5.29;72.76
39141;BME280;24875;48.436;10.298;2023-03-01T11:16:45;96508.34;;;5.05;71.33
39141;BME280;24875;48.436;10.298;2023-03-01T11:19:20;96503.38;;;5.40;69.89
39141;BME280;24875;48.436;10.298;2023-03-01T11:21:54;96496.47;;;5.48;72.09
39141;BME280;24875;48.436;10.298;2023-03-01T11:24:26;96497.72;;;5.54;70.54
39141;BME280;24875;48.436;10.298;2023-03-01T11:26:54;96493.41;;;5.72;70.03
39141;BME280;24875;48.436;10.298;2023-03-01T11:29:27;96493.03;;;5.48;70.48
39141;BME280;24875;48.436;10.298;2023-03-01T11:31:59;96494.25;;;5.53;70.61
39141;BME280;24875;48.436;10.298;2023-03-01T11:34:36;96493.03;;;5.48;71.98
39141;BME280;24875;48.436;10.298;2023-03-01T11:37:12;96484.06;;;5.60;70.28
39141;BME280;24875;48.436;10.298;2023-03-01T11:39:43;96476.41;;;5.49;68.60
39141;BME280;24875;48.436;10.298;2023-03-01T11:42:17;96474.16;;;5.73;71.21
39141;BME280;24875;48.436;10.298;2023-03-01T11:44:46;96478.56;;;5.63;69.57
39141;BME280;24875;48.436;10.298;2023-03-01T11:47:22;96465.75;;;5.69;71.27
39141;BME280;24875;48.436;10.298;2023-03-01T11:50:05;96454.72;;;5.85;70.49
39141;BME280;24875;48.436;10.298;2023-03-01T11:52:41;96454.66;;;6.04;71.10
39141;BME280;24875;48.436;10.298;2023-03-01T11:55:25;96454.66;;;6.04;69.97
39141;BME280;24875;48.436;10.298;2023-03-01T11:58:19;96450.53;;;6.28;68.32
39141;BME280;24875;48.436;10.298;2023-03-01T12:00:57;96448.91;;;6.27;68.92
39141;BME280;24875;48.436;10.298;2023-03-01T12:03:35;96440.63;;;6.31;69.09
39141;BME280;24875;48.436;10.298;2023-03-01T12:06:25;96440.69;;;6.39;69.19
39141;BME280;24875;48.436;10.298;2023-03-01T12:09:03;96427.88;;;6.36;66.11
39141;BME280;24875;48.436;10.298;2023-03-01T12:11:41;96424.72;;;6.15;68.40
39141;BME280;24875;48.436;10.298;2023-03-01T12:14:31;96421.72;;;6.10;69.64
39141;BME280;24875;48.436;10.298;2023-03-01T12:17:15;96417.56;;;6.17;67.98
39141;BME280;24875;48.436;10.298;2023-03-01T12:20:12;96412.69;;;5.96;68.95
39141;BME280;24875;48.436;10.298;2023-03-01T12:22:57;96402.88;;;5.71;68.78
39141;BME280;24875;48.436;10.298;2023-03-01T12:25:28;96400.47;;;5.87;71.11
39141;BME280;24875;48.436;10.298;2023-03-01T12:28:16;96398.66;;;5.97;71.28
39141;BME280;24875;48.436;10.298;2023-03-01T12:31:00;96403.84;;;6.06;69.88
39141;BME280;24875;48.436;10.298;2023-03-01T12:33:39;96392.13;;;6.10;70.36
39141;BME280;24875;48.436;10.298;2023-03-01T12:36:19;96395.75;;;6.26;67.24
39141;BME280;24875;48.436;10.298;2023-03-01T12:39:00;96393.72;;;6.20;68.46
39141;BME280;24875;48.436;10.298;2023-03-01T12:41:41;96394.41;;;6.22;68.03
39141;BME280;24875;48.436;10.298;2023-03-01T12:47:10;96374.63;;;6.10;70.49
39141;BME280;24875;48.436;10.298;2023-03-01T12:49:43;96378.16;;;6.19;72.22
39141;BME280;24875;48.436;10.298;2023-03-01T12:52:15;96372.44;;;6.33;71.01
39141;BME280;24875;48.436;10.298;2023-03-01T12:54:46;96359.25;;;6.42;71.00
39141;BME280;24875;48.436;10.298;2023-03-01T12:57:21;96365.16;;;6.27;71.11
39141;BME280;24875;48.436;10.298;2023-03-01T13:00:02;96361.97;;;6.33;68.20
39141;BME280;24875;48.436;10.298;2023-03-01T13:02:37;96363.00;;;6.22;68.69
39141;BME280;24875;48.436;10.298;2023-03-01T13:05:20;96369.97;;;6.31;69.49
39141;BME280;24875;48.436;10.298;2023-03-01T13:07:53;96368.16;;;6.32;67.70
39141;BME280;24875;48.436;10.298;2023-03-01T13:10:26;96358.72;;;6.39;69.89
39141;BME280;24875;48.436;10.298;2023-03-01T13:13:08;96368.19;;;6.49;69.79
39141;BME280;24875;48.436;10.298;2023-03-01T13:15:39;96361.28;;;6.48;71.33
39141;BME280;24875;48.436;10.298;2023-03-01T13:18:27;96352.16;;;6.69;70.86